createdAt,value
2018-12-24T00:00:46.007Z,91.30
2018-12-24T00:03:26.867Z,91.00
2018-12-24T00:05:54.636Z,90.80
2018-12-24T00:08:41.984Z,90.70
2018-12-24T00:11:29.212Z,91.00
2018-12-24T00:14:17.794Z,91.40
2018-12-24T00:17:05.254Z,91.50
2018-12-24T00:19:52.612Z,91.40
2018-12-24T00:22:39.858Z,91.30
2018-12-24T00:25:27.213Z,91.20
2018-12-24T00:28:14.606Z,91.10
2018-12-24T00:31:01.931Z,91.70
2018-12-24T00:33:29.748Z,92.40
2018-12-24T00:36:17.563Z,92.40
2018-12-24T00:39:05.582Z,92.00
2018-12-24T00:41:33.408Z,92.00
2018-12-24T00:44:01.225Z,92.10
2018-12-24T00:46:29.003Z,91.90
2018-12-24T00:48:56.841Z,91.90
2018-12-24T00:51:38.632Z,91.90
2018-12-24T00:54:26.154Z,92.20
2018-12-24T00:57:13.401Z,92.00
2018-12-24T01:00:00.717Z,92.10
2018-12-24T01:02:28.500Z,91.20
2018-12-24T01:04:56.249Z,91.20
2018-12-24T01:07:24.030Z,91.10
2018-12-24T01:10:11.764Z,90.70
2018-12-24T01:12:39.565Z,90.70
2018-12-24T01:15:07.268Z,90.10
2018-12-24T01:17:35.061Z,90.20
2018-12-24T01:20:03.040Z,90.30
2018-12-24T01:22:30.899Z,88.70
2018-12-24T01:24:58.785Z,89.10
2018-12-24T01:27:46.017Z,88.90
2018-12-24T01:30:13.872Z,88.80
2018-12-24T01:32:41.584Z,89.10
2018-12-24T01:35:09.417Z,89.00
2018-12-24T01:37:37.139Z,89.30
2018-12-24T01:40:05.044Z,87.80
2018-12-24T01:42:33.464Z,88.60
2018-12-24T01:45:01.614Z,89.00
2018-12-24T01:47:29.392Z,88.70
2018-12-24T01:50:16.710Z,89.20
2018-12-24T01:52:57.283Z,89.20
2018-12-24T01:55:25.163Z,90.00
2018-12-24T01:57:52.964Z,88.90
2018-12-24T02:00:20.747Z,89.70
2018-12-24T02:02:48.504Z,89.60
2018-12-24T02:05:16.324Z,89.30
2018-12-24T02:08:03.549Z,88.40
2018-12-24T02:10:50.981Z,85.60
2018-12-24T02:13:38.272Z,85.50
2018-12-24T02:16:06.026Z,85.70
2018-12-24T02:18:53.604Z,85.60
2018-12-24T02:21:41.018Z,83.10
2018-12-24T02:24:28.337Z,84.30
2018-12-24T02:27:15.567Z,85.20
2018-12-24T02:30:03.103Z,83.80
2018-12-24T02:32:50.317Z,83.70
2018-12-24T02:35:37.557Z,82.50
2018-12-24T02:38:05.193Z,83.20
2018-12-24T02:40:32.971Z,84.40
2018-12-24T02:43:00.770Z,83.90
2018-12-24T02:45:28.561Z,84.50
2018-12-24T02:47:56.271Z,84.10
2018-12-24T02:50:43.481Z,84.20
2018-12-24T02:53:24.615Z,83.60
2018-12-24T02:56:11.880Z,83.40
2018-12-24T02:58:59.351Z,83.50
2018-12-24T03:01:46.566Z,84.10
2018-12-24T03:04:33.760Z,85.00
2018-12-24T03:07:21.031Z,84.50
2018-12-24T03:10:08.183Z,85.50
2018-12-24T03:13:02.532Z,83.50
2018-12-24T03:15:45.220Z,83.30
2018-12-24T03:18:32.433Z,82.90
2018-12-24T03:21:19.953Z,82.70
2018-12-24T03:24:07.120Z,81.90
2018-12-24T03:26:54.350Z,83.00
2018-12-24T03:29:41.615Z,82.50
2018-12-24T03:35:16.304Z,82.80
2018-12-24T03:38:03.539Z,83.10
2018-12-24T03:40:50.771Z,82.90
2018-12-24T03:43:38.094Z,83.00
2018-12-24T03:46:25.651Z,81.70
2018-12-24T03:49:12.899Z,82.30
2018-12-24T03:51:53.715Z,82.40
2018-12-24T03:54:41.129Z,81.80
2018-12-24T03:57:28.323Z,82.20
2018-12-24T04:00:15.570Z,81.90
2018-12-24T04:03:03.010Z,83.00
2018-12-24T04:05:50.609Z,81.90
2018-12-24T04:08:18.361Z,81.20
2018-12-24T04:10:46.116Z,80.40
2018-12-24T04:13:22.148Z,80.70
2018-12-24T04:16:03.177Z,80.90
2018-12-24T04:18:50.588Z,81.70
2018-12-24T04:21:18.333Z,80.10
2018-12-24T04:23:46.201Z,79.10
2018-12-24T04:26:33.629Z,79.80
2018-12-24T04:29:20.848Z,78.00
2018-12-24T04:32:08.072Z,79.10
2018-12-24T04:34:55.296Z,80.00
2018-12-24T04:37:42.512Z,79.40
2018-12-24T04:40:29.759Z,80.60
2018-12-24T04:43:17.000Z,81.60
2018-12-24T04:46:04.197Z,81.60
2018-12-24T04:51:21.413Z,80.70
2018-12-24T04:54:08.885Z,80.50
2018-12-24T04:56:36.740Z,81.00
2018-12-24T04:59:04.556Z,80.60
2018-12-24T05:01:32.421Z,80.60
2018-12-24T05:04:00.178Z,79.60
2018-12-24T05:06:27.879Z,79.10
2018-12-24T05:08:55.637Z,78.80
2018-12-24T05:11:23.521Z,78.70
2018-12-24T05:13:51.284Z,77.50
2018-12-24T05:16:19.057Z,77.20
2018-12-24T05:19:06.263Z,77.50
2018-12-24T05:21:53.723Z,77.60
2018-12-24T05:24:41.838Z,76.90
2018-12-24T05:27:29.050Z,76.60
2018-12-24T05:29:56.799Z,76.10
2018-12-24T05:32:44.214Z,76.20
2018-12-24T05:35:32.064Z,76.20
2018-12-24T05:38:19.283Z,75.60
2018-12-24T05:41:06.517Z,76.20
2018-12-24T05:43:54.348Z,75.60
2018-12-24T05:46:41.770Z,76.20
2018-12-24T05:49:29.403Z,76.20
2018-12-24T05:52:10.241Z,76.60
2018-12-24T05:54:57.662Z,77.10
2018-12-24T05:57:45.100Z,76.90
2018-12-24T06:00:32.381Z,76.00
2018-12-24T06:03:19.687Z,75.60
2018-12-24T06:06:06.956Z,74.90
2018-12-24T06:08:34.749Z,74.30
2018-12-24T06:11:02.540Z,74.00
2018-12-24T06:13:57.785Z,74.00
2018-12-24T06:16:39.582Z,73.80
2018-12-24T06:19:27.150Z,74.20
2018-12-24T06:22:14.346Z,73.30
2018-12-24T06:25:01.786Z,74.00
2018-12-24T06:27:49.423Z,73.90
2018-12-24T06:30:36.865Z,74.60
2018-12-24T06:33:24.096Z,75.10
2018-12-24T06:35:51.864Z,74.80
2018-12-24T06:38:39.369Z,74.90
2018-12-24T06:41:26.667Z,75.30
2018-12-24T06:44:14.318Z,76.10
2018-12-24T06:47:01.792Z,76.30
2018-12-24T06:49:29.562Z,76.20
2018-12-24T06:51:57.372Z,75.90
2018-12-24T06:54:44.788Z,75.60
2018-12-24T06:57:32.227Z,75.00
2018-12-24T07:00:19.903Z,75.60
2018-12-24T07:03:07.167Z,76.90
2018-12-24T07:05:54.450Z,77.80
2018-12-24T07:08:42.141Z,77.00
2018-12-24T07:11:30.983Z,77.00
2018-12-24T07:14:18.516Z,77.20
2018-12-24T07:17:05.983Z,76.60
2018-12-24T07:19:53.668Z,75.60
2018-12-24T07:22:40.922Z,76.00
2018-12-24T07:25:28.262Z,77.90
2018-12-24T07:28:15.719Z,74.00
2018-12-24T07:31:03.100Z,74.40
2018-12-24T07:33:50.573Z,75.50
2018-12-24T07:36:37.797Z,75.30
2018-12-24T07:39:25.228Z,74.40
2018-12-24T07:42:05.296Z,74.40
2018-12-24T07:44:33.101Z,74.60
2018-12-24T07:47:20.614Z,72.60
2018-12-24T07:50:08.419Z,74.50
2018-12-24T07:52:55.857Z,73.80
2018-12-24T07:55:24.085Z,74.70
2018-12-24T07:58:11.840Z,72.10
2018-12-24T08:00:59.097Z,71.80
2018-12-24T08:03:48.066Z,70.70
2018-12-24T08:06:15.919Z,71.00
2018-12-24T08:08:43.776Z,72.60
2018-12-24T08:11:11.640Z,72.40
2018-12-24T08:13:39.484Z,69.70
2018-12-24T08:16:26.936Z,71.10
2018-12-24T08:19:14.373Z,70.60
2018-12-24T08:22:01.869Z,69.10
2018-12-24T08:24:49.255Z,70.00
2018-12-24T08:27:36.470Z,70.10
2018-12-24T08:30:23.756Z,68.80
2018-12-24T08:33:11.243Z,68.40
2018-12-24T08:35:59.027Z,67.70
2018-12-24T08:38:46.641Z,67.40
2018-12-24T08:41:33.957Z,67.90
2018-12-24T08:44:01.788Z,67.30
2018-12-24T08:46:29.589Z,66.90
2018-12-24T08:48:57.569Z,65.90
2018-12-24T08:51:25.385Z,66.70
2018-12-24T08:53:53.213Z,66.40
2018-12-24T08:56:40.751Z,65.60
2018-12-24T08:59:08.630Z,67.00
2018-12-24T09:01:36.490Z,65.10
2018-12-24T09:04:04.332Z,66.70
2018-12-24T09:06:32.149Z,65.30
2018-12-24T09:09:00.072Z,65.40
2018-12-24T09:11:27.868Z,66.30
2018-12-24T09:13:55.638Z,67.00
2018-12-24T09:16:23.474Z,65.30
2018-12-24T09:19:11.002Z,65.80
2018-12-24T09:21:58.658Z,67.60
2018-12-24T09:24:45.963Z,65.50
2018-12-24T09:27:33.258Z,65.30
2018-12-24T09:30:14.968Z,64.10
2018-12-24T09:33:02.687Z,63.80
2018-12-24T09:35:49.919Z,63.40
2018-12-24T09:38:37.228Z,63.80
2018-12-24T09:41:04.993Z,64.40
2018-12-24T09:43:32.771Z,65.00
2018-12-24T09:46:00.656Z,64.70
2018-12-24T09:48:28.447Z,65.40
2018-12-24T09:51:15.994Z,66.00
2018-12-24T09:54:03.472Z,65.40
2018-12-24T09:56:50.763Z,64.40
2018-12-24T09:59:38.317Z,64.80
2018-12-24T10:02:19.069Z,63.70
2018-12-24T10:05:06.626Z,64.90
2018-12-24T10:07:54.276Z,64.00
2018-12-24T10:10:41.629Z,65.10
2018-12-24T10:13:28.965Z,65.80
2018-12-24T10:16:16.348Z,64.70
2018-12-24T10:18:44.155Z,66.40
2018-12-24T10:21:11.966Z,65.20
2018-12-24T10:23:39.815Z,66.10
2018-12-24T10:26:27.139Z,66.30
2018-12-24T10:28:55.014Z,65.50
2018-12-24T10:31:42.516Z,63.90
2018-12-24T10:34:29.825Z,63.90
2018-12-24T10:36:57.642Z,64.00
2018-12-24T10:39:25.646Z,63.10
2018-12-24T10:41:53.505Z,63.50
2018-12-24T10:44:21.901Z,63.60
2018-12-24T10:46:49.712Z,63.60
2018-12-24T10:49:17.707Z,63.40
2018-12-24T10:51:45.513Z,62.40
2018-12-24T10:54:32.833Z,63.00
2018-12-24T10:57:20.364Z,62.70
2018-12-24T11:00:09.664Z,63.30
2018-12-24T11:02:56.962Z,64.00
2018-12-24T11:05:44.445Z,63.20
2018-12-24T11:08:32.020Z,62.60
2018-12-24T11:11:19.347Z,63.20
2018-12-24T11:14:06.786Z,62.40
2018-12-24T11:16:54.152Z,62.00
2018-12-24T11:19:41.396Z,59.10
2018-12-24T11:22:28.982Z,58.00
2018-12-24T11:24:57.424Z,60.40
2018-12-24T11:27:25.345Z,56.90
2018-12-24T11:30:12.606Z,56.20
2018-12-24T11:33:00.203Z,56.70
2018-12-24T11:35:47.510Z,55.50
2018-12-24T11:38:34.968Z,55.90
2018-12-24T11:41:22.339Z,56.60
2018-12-24T11:49:25.503Z,54.30
2018-12-24T11:51:53.338Z,54.30
2018-12-24T11:54:21.219Z,54.80
2018-12-24T11:57:08.614Z,55.10
2018-12-24T11:59:56.308Z,54.60
2018-12-24T12:02:43.698Z,54.00
2018-12-24T12:05:31.025Z,55.00
2018-12-24T12:08:18.395Z,53.70
2018-12-24T12:11:05.956Z,53.80
2018-12-24T12:13:53.628Z,54.10
2018-12-24T12:16:40.986Z,55.10
2018-12-24T12:19:28.233Z,53.50
2018-12-24T12:22:15.999Z,54.50
2018-12-24T12:25:03.576Z,53.30
2018-12-24T12:27:47.805Z,53.20
2018-12-24T12:30:35.115Z,53.30
2018-12-24T12:33:23.173Z,54.60
2018-12-24T12:36:10.657Z,54.40
2018-12-24T12:39:19.800Z,56.70
2018-12-24T12:42:07.513Z,56.70
2018-12-24T12:44:55.064Z,55.90
2018-12-24T12:47:42.386Z,55.90
2018-12-24T12:50:10.190Z,56.40
2018-12-24T12:52:38.037Z,55.90
2018-12-24T12:55:05.869Z,55.90
2018-12-24T12:57:53.413Z,56.40
2018-12-24T13:00:21.181Z,56.70
2018-12-24T13:02:49.003Z,57.50
2018-12-24T13:05:36.267Z,58.20
2018-12-24T13:08:17.191Z,56.70
2018-12-24T13:11:04.770Z,57.30
2018-12-24T13:13:52.085Z,58.80
2018-12-24T13:16:39.375Z,56.60
2018-12-24T13:19:07.308Z,53.10
2018-12-24T13:21:55.041Z,53.10
2018-12-24T13:24:42.778Z,52.60
2018-12-24T13:27:30.252Z,53.70
2018-12-24T13:29:58.041Z,53.50
2018-12-24T13:32:26.527Z,51.50
2018-12-24T13:35:15.133Z,52.10
2018-12-24T13:38:02.456Z,51.80
2018-12-24T13:40:30.324Z,50.30
2018-12-24T13:43:17.590Z,50.50
2018-12-24T13:46:08.163Z,49.50
2018-12-24T13:48:55.896Z,48.90
2018-12-24T13:51:43.540Z,49.70
2018-12-24T13:54:24.717Z,48.20
2018-12-24T13:57:12.250Z,47.60
2018-12-24T13:59:59.514Z,47.10
2018-12-24T14:02:29.145Z,48.30
2018-12-24T14:04:56.951Z,47.70
2018-12-24T14:07:24.801Z,47.80
2018-12-24T14:09:52.626Z,47.80
2018-12-24T14:12:20.543Z,49.10
2018-12-24T14:15:08.092Z,48.40
2018-12-24T14:17:55.783Z,48.10
2018-12-24T14:20:23.717Z,48.40
2018-12-24T14:22:51.775Z,47.20
2018-12-24T14:25:19.873Z,48.60
2018-12-24T14:27:48.483Z,50.20
2018-12-24T14:30:16.462Z,48.60
2018-12-24T14:32:44.338Z,48.10
2018-12-24T14:35:32.055Z,48.60
2018-12-24T14:38:19.382Z,49.60
2018-12-24T14:41:07.344Z,49.50
2018-12-24T14:43:54.859Z,50.10
2018-12-24T14:46:34.809Z,47.60
2018-12-24T14:49:22.144Z,48.40
2018-12-24T14:52:09.479Z,47.80
2018-12-24T14:54:56.821Z,48.10
2018-12-24T14:57:44.517Z,48.50
2018-12-24T15:00:31.816Z,50.30
2018-12-24T15:03:19.446Z,49.10
2018-12-24T15:06:06.780Z,49.50
2018-12-24T15:08:54.536Z,50.30
2018-12-24T15:11:42.093Z,51.00
2018-12-24T15:14:29.447Z,52.10
2018-12-24T15:17:17.108Z,52.90
2018-12-24T15:19:45.113Z,53.10
2018-12-24T15:22:13.047Z,53.30
2018-12-24T15:24:40.967Z,52.90
2018-12-24T15:27:09.236Z,53.70
2018-12-24T15:29:56.834Z,54.60
2018-12-24T15:32:24.703Z,53.80
2018-12-24T15:35:12.159Z,52.20
2018-12-24T15:37:53.132Z,51.10
2018-12-24T15:40:40.442Z,51.60
2018-12-24T15:43:27.811Z,52.10
2018-12-24T15:46:15.169Z,52.10
2018-12-24T15:49:02.568Z,51.70
2018-12-24T15:51:49.916Z,50.60
2018-12-24T15:54:37.353Z,51.40
2018-12-24T15:57:24.726Z,49.50
2018-12-24T16:00:12.266Z,50.90
2018-12-24T16:02:59.631Z,50.50
2018-12-24T16:05:46.998Z,49.00
2018-12-24T16:08:34.278Z,49.60
2018-12-24T16:11:21.561Z,49.40
2018-12-24T16:14:09.129Z,48.70
2018-12-24T16:16:56.458Z,49.70
2018-12-24T16:19:43.966Z,50.00
2018-12-24T16:22:31.331Z,50.20
2018-12-24T16:25:18.834Z,50.60
2018-12-24T16:28:06.649Z,50.70
2018-12-24T16:30:53.975Z,50.70
2018-12-24T16:33:41.287Z,50.50
2018-12-24T16:36:09.130Z,50.70
2018-12-24T16:38:50.273Z,50.20
2018-12-24T16:41:18.151Z,50.20
2018-12-24T16:43:46.000Z,50.70
2018-12-24T16:46:13.901Z,50.50
2018-12-24T16:48:41.679Z,51.00
2018-12-24T16:51:29.204Z,50.90
2018-12-24T16:54:16.468Z,51.00
2018-12-24T16:57:03.979Z,51.40
2018-12-24T16:59:51.329Z,50.70
2018-12-24T17:02:38.586Z,51.40
2018-12-24T17:05:25.870Z,52.00
2018-12-24T17:08:13.391Z,51.30
2018-12-24T17:11:00.718Z,51.10
2018-12-24T17:13:47.947Z,51.30
2018-12-24T17:16:35.293Z,51.70
2018-12-24T17:19:22.524Z,51.70
2018-12-24T17:22:09.782Z,51.70
2018-12-24T17:24:57.324Z,51.50
2018-12-24T17:27:44.935Z,51.70
2018-12-24T17:30:32.204Z,52.00
2018-12-24T17:33:19.494Z,52.20
2018-12-24T17:36:06.732Z,52.40
2018-12-24T17:38:34.623Z,52.20
2018-12-24T17:41:02.517Z,52.10
2018-12-24T17:43:49.902Z,52.80
2018-12-24T17:46:37.213Z,52.80
2018-12-24T17:49:24.607Z,52.50
2018-12-24T17:52:11.934Z,52.60
2018-12-24T17:54:59.483Z,53.10
2018-12-24T17:57:47.026Z,53.00
2018-12-24T18:00:34.294Z,53.20
2018-12-24T18:03:21.624Z,52.50
2018-12-24T18:06:09.112Z,52.60
2018-12-24T18:08:56.565Z,52.70
2018-12-24T18:11:43.888Z,53.00
2018-12-24T18:14:31.209Z,53.60
2018-12-24T18:17:24.774Z,53.10
2018-12-24T18:20:08.121Z,53.50
2018-12-24T18:22:48.294Z,54.30
2018-12-24T18:25:36.029Z,54.70
2018-12-24T18:28:23.391Z,55.10
2018-12-24T18:31:11.182Z,55.70
2018-12-24T18:33:51.899Z,56.30
2018-12-24T18:36:39.394Z,55.80
2018-12-24T18:39:26.728Z,56.00
2018-12-24T18:42:13.984Z,56.30
2018-12-24T18:45:01.262Z,56.10
2018-12-24T18:47:33.166Z,56.10
2018-12-24T18:50:18.341Z,56.10
2018-12-24T18:53:05.855Z,55.70
2018-12-24T18:55:53.393Z,56.10
2018-12-24T18:58:40.649Z,56.00
2018-12-24T19:01:08.507Z,56.90
2018-12-24T19:03:36.635Z,57.10
2018-12-24T19:06:23.928Z,56.90
2018-12-24T19:09:11.234Z,57.30
2018-12-24T19:11:39.221Z,58.20
2018-12-24T19:14:07.176Z,59.80
2018-12-24T19:16:34.902Z,61.00
2018-12-24T19:19:13.521Z,62.20
2018-12-24T19:21:44.031Z,62.10
2018-12-24T19:24:11.239Z,62.70
2018-12-24T19:26:39.080Z,62.90
2018-12-24T19:29:26.336Z,62.80
2018-12-24T19:32:13.611Z,62.90
2018-12-24T19:35:00.993Z,63.50
2018-12-24T19:37:40.941Z,64.00
2018-12-24T19:40:28.527Z,64.10
2018-12-24T19:43:15.814Z,63.80
2018-12-24T19:46:03.139Z,63.90
2018-12-24T19:48:50.478Z,64.30
2018-12-24T19:51:37.806Z,64.00
2018-12-24T19:54:25.302Z,63.80
2018-12-24T19:57:12.567Z,64.40
2018-12-24T19:59:40.336Z,64.10
2018-12-24T20:02:08.169Z,64.10
2018-12-24T20:04:55.652Z,64.10
2018-12-24T20:07:42.989Z,64.50
2018-12-24T20:10:33.174Z,63.80
2018-12-24T20:13:20.548Z,64.00
2018-12-24T20:16:08.076Z,64.90
2018-12-24T20:18:55.452Z,64.00
2018-12-24T20:21:23.255Z,64.30
2018-12-24T20:24:10.666Z,63.90
2018-12-24T20:26:38.578Z,63.50
2018-12-24T20:29:06.353Z,62.90
2018-12-24T20:31:34.143Z,62.90
2018-12-24T20:34:21.466Z,62.60
2018-12-24T20:37:09.578Z,62.80
2018-12-24T20:39:51.529Z,62.60
2018-12-24T20:42:38.844Z,61.70
2018-12-24T20:45:26.155Z,61.70
2018-12-24T20:48:13.433Z,62.00
2018-12-24T20:51:00.714Z,61.40
2018-12-24T20:53:28.569Z,61.70
2018-12-24T20:56:16.006Z,61.60
2018-12-24T20:59:03.253Z,61.90
2018-12-24T21:01:58.973Z,62.20
2018-12-24T21:04:46.289Z,61.60
2018-12-24T21:07:33.608Z,63.20
2018-12-24T21:10:21.164Z,63.30
2018-12-24T21:13:08.714Z,63.80
2018-12-24T21:15:55.961Z,63.80
2018-12-24T21:18:43.333Z,64.60
2018-12-24T21:21:30.679Z,64.90
2018-12-24T21:23:58.493Z,65.60
2018-12-24T21:26:26.356Z,65.70
2018-12-24T21:28:54.156Z,65.80
2018-12-24T21:31:41.558Z,65.60
2018-12-24T21:34:28.852Z,65.90
2018-12-24T21:37:16.224Z,66.50
2018-12-24T21:40:03.561Z,66.80
2018-12-24T21:42:31.472Z,67.20
2018-12-24T21:45:18.831Z,67.40
2018-12-24T21:48:06.205Z,68.20
2018-12-24T21:51:07.574Z,68.60
2018-12-24T21:53:42.990Z,68.40
2018-12-24T21:56:30.495Z,68.50
2018-12-24T21:59:17.819Z,68.60
2018-12-24T22:02:05.592Z,68.70
2018-12-24T22:04:55.133Z,69.40
2018-12-24T22:07:42.433Z,69.40
2018-12-24T22:10:30.132Z,68.70
2018-12-24T22:13:17.417Z,68.70
2018-12-24T22:16:04.677Z,69.00
2018-12-24T22:18:51.932Z,68.60
2018-12-24T22:21:39.375Z,68.20
2018-12-24T22:24:26.798Z,68.30
2018-12-24T22:27:14.098Z,68.10
2018-12-24T22:30:01.369Z,68.60
2018-12-24T22:32:48.746Z,68.80
2018-12-24T22:35:36.203Z,68.60
2018-12-24T22:38:04.121Z,68.50
2018-12-24T22:40:51.415Z,68.50
2018-12-24T22:43:19.270Z,68.40
2018-12-24T22:45:47.064Z,69.00
2018-12-24T22:48:14.957Z,69.50
2018-12-24T22:51:02.248Z,68.90
2018-12-24T22:54:11.313Z,69.20
2018-12-24T22:56:39.094Z,69.60
2018-12-24T22:59:26.492Z,69.50
2018-12-24T23:02:13.941Z,67.10
2018-12-24T23:05:01.246Z,68.40
2018-12-24T23:07:29.080Z,68.00
2018-12-24T23:09:56.950Z,68.10
2018-12-24T23:12:44.305Z,67.70
2018-12-24T23:15:31.550Z,67.80
2018-12-24T23:18:18.863Z,68.10
2018-12-24T23:21:06.133Z,68.80
2018-12-24T23:23:53.379Z,69.50
2018-12-24T23:26:40.694Z,69.20
2018-12-24T23:29:28.098Z,68.30
2018-12-24T23:32:15.361Z,69.90
2018-12-24T23:35:02.595Z,71.60
2018-12-24T23:37:43.380Z,73.10
2018-12-24T23:40:32.011Z,71.80
2018-12-24T23:43:19.782Z,71.90
2018-12-24T23:46:07.047Z,71.80
2018-12-24T23:48:57.797Z,70.00
2018-12-24T23:51:43.497Z,70.30
2018-12-24T23:54:30.808Z,69.40
2018-12-24T23:57:18.080Z,69.20
